Time;durP1;ratioP1;P1;durP2;ratioP2;P2;SDS_P1;SDS_P2;PMS_P1;PMS_P2;Temp;Humidity;BMP_temperature;BMP_pressure;BME280_temperature;BME280_humidity;BME280_pressure;Samples;Min_cycle;Max_cycle;Signal;HPM_P1;HPM_P2
2023/09/09 00:02:01;;;;;;;47.17;33.30;;;;;;;;;;5034858;28;20169;-28
2023/09/09 00:04:26;;;;;;;47.33;34.67;;;;;;;;;;5034854;28;20017;-28
2023/09/09 00:06:51;;;;;;;43.27;32.27;;;;;;;;;;5034177;28;20504;-28
2023/09/09 00:09:16;;;;;;;46.87;34.40;;;;;;;;;;5034194;28;20032;-26
2023/09/09 00:11:42;;;;;;;51.13;34.13;;;;;;;;;;5034144;28;20483;-27
2023/09/09 00:14:07;;;;;;;46.13;33.60;;;;;;;;;;5034320;28;20029;-28
2023/09/09 00:16:34;;;;;;;40.90;31.17;;;;;;;;;;5034081;28;20033;-27
2023/09/09 00:18:59;;;;;;;48.60;33.35;;;;;;;;;;5034245;28;20487;-27
2023/09/09 00:21:25;;;;;;;46.58;33.90;;;;;;;;;;5034239;28;20017;-27
2023/09/09 00:23:50;;;;;;;46.35;33.90;;;;;;;;;;5033915;28;20025;-27
2023/09/09 00:26:15;;;;;;;47.60;34.00;;;;;;;;;;5034388;28;20075;-27
2023/09/09 00:28:40;;;;;;;52.17;34.90;;;;;;;;;;5034089;28;20480;-27
2023/09/09 00:31:06;;;;;;;46.47;34.10;;;;;;;;;;5034381;28;20018;-27
2023/09/09 00:33:31;;;;;;;48.33;35.60;;;;;;;;;;5033678;28;20036;-27
2023/09/09 00:35:58;;;;;;;52.97;34.93;;;;;;;;;;5033706;28;20286;-28
2023/09/09 00:38:23;;;;;;;56.80;36.70;;;;;;;;;;5033736;28;20723;-27
2023/09/09 00:41:07;;;;;;;53.23;35.60;;;;;;;;;;5034172;28;20100;-27
2023/09/09 00:43:32;;;;;;;54.60;37.97;;;;;;;;;;5034133;28;20018;-27
2023/09/09 00:45:58;;;;;;;50.93;36.37;;;;;;;;;;5033843;28;20109;-27
2023/09/09 00:48:23;;;;;;;54.67;36.53;;;;;;;;;;5033060;28;20396;-27
2023/09/09 00:50:48;;;;;;;51.63;35.93;;;;;;;;;;5033467;28;20631;-27
2023/09/09 00:53:13;;;;;;;49.47;35.53;;;;;;;;;;5033488;28;20599;-27
2023/09/09 00:55:40;;;;;;;52.65;34.63;;;;;;;;;;5033688;28;20049;-27
2023/09/09 00:58:06;;;;;;;43.63;31.63;;;;;;;;;;5033653;28;20020;-27
2023/09/09 01:00:32;;;;;;;48.13;32.40;;;;;;;;;;5033354;28;20400;-27
2023/09/09 01:02:57;;;;;;;42.92;31.27;;;;;;;;;;5033616;28;20071;-27
2023/09/09 01:05:23;;;;;;;41.20;30.23;;;;;;;;;;5033365;28;20013;-27
2023/09/09 01:07:48;;;;;;;42.08;30.98;;;;;;;;;;5033390;28;20547;-27
2023/09/09 01:10:15;;;;;;;46.25;32.60;;;;;;;;;;5033528;28;20049;-27
2023/09/09 01:12:43;;;;;;;47.85;32.75;;;;;;;;;;5033287;28;20025;-27
2023/09/09 01:15:09;;;;;;;52.75;33.90;;;;;;;;;;5033709;28;20017;-27
2023/09/09 01:17:35;;;;;;;42.90;32.83;;;;;;;;;;5033830;28;20016;-27
2023/09/09 01:20:02;;;;;;;48.20;35.05;;;;;;;;;;5033441;28;20391;-27
2023/09/09 01:22:33;;;;;;;52.08;35.42;;;;;;;;;;5033482;28;20499;-27
2023/09/09 01:24:59;;;;;;;51.17;34.60;;;;;;;;;;5033161;28;20100;-27
2023/09/09 01:27:24;;;;;;;51.28;34.47;;;;;;;;;;5033134;28;20072;-27
2023/09/09 01:29:49;;;;;;;48.90;35.30;;;;;;;;;;5033153;28;20017;-27
2023/09/09 01:32:14;;;;;;;53.47;36.73;;;;;;;;;;5033034;28;20018;-27
2023/09/09 01:34:40;;;;;;;55.72;38.80;;;;;;;;;;5032904;28;20033;-27
2023/09/09 01:37:05;;;;;;;58.23;38.40;;;;;;;;;;5033095;28;20017;-27
2023/09/09 01:39:30;;;;;;;57.80;38.90;;;;;;;;;;5033288;28;20332;-27
2023/09/09 01:41:55;;;;;;;60.77;41.10;;;;;;;;;;5032921;28;20272;-27
2023/09/09 01:44:20;;;;;;;58.37;40.10;;;;;;;;;;5033027;28;20025;-27
2023/09/09 01:46:46;;;;;;;61.92;42.13;;;;;;;;;;5032925;28;20096;-27
2023/09/09 01:49:11;;;;;;;59.23;40.50;;;;;;;;;;5033443;28;20018;-27
2023/09/09 01:51:36;;;;;;;70.93;43.47;;;;;;;;;;5032960;28;20264;-27
2023/09/09 01:54:01;;;;;;;64.70;43.20;;;;;;;;;;5033421;28;20022;-27
2023/09/09 01:56:26;;;;;;;72.80;46.80;;;;;;;;;;5032857;28;20607;-27
2023/09/09 01:58:52;;;;;;;75.60;48.30;;;;;;;;;;5033331;28;20050;-27
2023/09/09 02:01:17;;;;;;;75.50;48.83;;;;;;;;;;5036563;28;20064;-28
2023/09/09 02:03:42;;;;;;;86.90;50.63;;;;;;;;;;5037087;28;20100;-27
2023/09/09 02:06:08;;;;;;;81.75;52.92;;;;;;;;;;5036409;28;20018;-27
2023/09/09 02:08:33;;;;;;;91.03;54.20;;;;;;;;;;5037008;28;20338;-27
2023/09/09 02:10:58;;;;;;;85.80;52.67;;;;;;;;;;5036367;28;20013;-28
2023/09/09 02:13:23;;;;;;;92.85;58.60;;;;;;;;;;5036294;28;20049;-27
2023/09/09 02:15:49;;;;;;;99.83;59.57;;;;;;;;;;5036262;28;20021;-27
2023/09/09 02:18:14;;;;;;;108.73;62.20;;;;;;;;;;5036825;28;20248;-27
2023/09/09 02:20:39;;;;;;;110.05;65.60;;;;;;;;;;5036221;28;20252;-27
2023/09/09 02:23:04;;;;;;;108.90;65.20;;;;;;;;;;5036709;28;20017;-27
2023/09/09 02:25:29;;;;;;;115.20;65.77;;;;;;;;;;5036086;28;20097;-27
2023/09/09 02:27:54;;;;;;;116.77;65.93;;;;;;;;;;5036024;28;20025;-27
2023/09/09 02:30:21;;;;;;;119.83;70.43;;;;;;;;;;5036306;28;20262;-27
2023/09/09 02:32:46;;;;;;;119.22;70.28;;;;;;;;;;5036267;28;20367;-27
2023/09/09 02:35:13;;;;;;;139.17;75.93;;;;;;;;;;5036138;28;20018;-27
2023/09/09 02:37:38;;;;;;;123.22;72.95;;;;;;;;;;5036136;28;20610;-27
2023/09/09 02:40:04;;;;;;;126.75;73.03;;;;;;;;;;5036058;28;20017;-27
2023/09/09 02:42:29;;;;;;;131.50;75.03;;;;;;;;;;5036325;28;20456;-27
2023/09/09 02:44:54;;;;;;;123.68;72.63;;;;;;;;;;5036036;28;20021;-27
2023/09/09 02:47:19;;;;;;;137.90;76.67;;;;;;;;;;5035711;28;20049;-28
2023/09/09 02:49:45;;;;;;;129.32;75.35;;;;;;;;;;5035576;28;20365;-27
2023/09/09 02:52:10;;;;;;;128.67;72.93;;;;;;;;;;5036127;28;20095;-27
2023/09/09 02:54:36;;;;;;;126.40;74.95;;;;;;;;;;5035539;28;20699;-29
2023/09/09 02:57:03;;;;;;;124.80;72.82;;;;;;;;;;5035779;28;20021;-27
2023/09/09 02:59:29;;;;;;;134.32;73.32;;;;;;;;;;5035457;28;20479;-27
2023/09/09 03:01:54;;;;;;;122.47;69.70;;;;;;;;;;5035434;28;20105;-27
2023/09/09 03:04:19;;;;;;;115.23;66.97;;;;;;;;;;5035419;28;20526;-27
2023/09/09 03:06:45;;;;;;;115.50;65.60;;;;;;;;;;5035602;28;20251;-27
2023/09/09 03:09:10;;;;;;;115.60;67.95;;;;;;;;;;5035533;28;20259;-27
2023/09/09 03:11:35;;;;;;;111.07;63.93;;;;;;;;;;5034845;28;20017;-27
2023/09/09 03:14:00;;;;;;;120.20;68.70;;;;;;;;;;5035664;28;20288;-27
2023/09/09 03:16:25;;;;;;;113.27;66.73;;;;;;;;;;5035718;28;20279;-27
2023/09/09 03:18:50;;;;;;;113.87;65.60;;;;;;;;;;5035687;28;20026;-27
2023/09/09 03:21:16;;;;;;;111.13;65.43;;;;;;;;;;5035376;28;20096;-27
2023/09/09 03:23:41;;;;;;;112.47;65.25;;;;;;;;;;5035282;28;20020;-27
2023/09/09 03:26:08;;;;;;;99.53;57.88;;;;;;;;;;5035041;28;20017;-27
2023/09/09 03:28:33;;;;;;;91.57;53.63;;;;;;;;;;5034895;28;20040;-27
2023/09/09 03:30:59;;;;;;;84.43;50.67;;;;;;;;;;5035161;28;20014;-27
2023/09/09 03:33:26;;;;;;;80.40;47.58;;;;;;;;;;5035127;28;20252;-27
2023/09/09 03:35:52;;;;;;;73.93;42.83;;;;;;;;;;5035056;28;20026;-27
2023/09/09 03:38:17;;;;;;;66.70;41.43;;;;;;;;;;5034774;28;20025;-27
2023/09/09 03:40:42;;;;;;;65.63;39.47;;;;;;;;;;5035274;28;20249;-27
2023/09/09 03:43:07;;;;;;;62.38;38.70;;;;;;;;;;5034933;28;20318;-27
2023/09/09 03:45:33;;;;;;;55.33;36.20;;;;;;;;;;5034608;28;20022;-27
2023/09/09 03:47:58;;;;;;;50.80;33.60;;;;;;;;;;5034846;28;20022;-27
2023/09/09 03:50:23;;;;;;;52.03;32.63;;;;;;;;;;5034704;28;20100;-27
2023/09/09 03:52:49;;;;;;;47.27;31.87;;;;;;;;;;5034744;28;20323;-27
2023/09/09 03:55:14;;;;;;;51.03;33.58;;;;;;;;;;5034393;28;20367;-27
2023/09/09 03:57:39;;;;;;;56.37;34.70;;;;;;;;;;5034337;28;20412;-28
2023/09/09 04:00:06;;;;;;;52.23;34.50;;;;;;;;;;5034220;28;20268;-27
2023/09/09 04:02:31;;;;;;;53.70;33.35;;;;;;;;;;5035052;28;20017;-27
2023/09/09 04:04:56;;;;;;;51.60;33.03;;;;;;;;;;5034235;28;20144;-27
2023/09/09 04:07:21;;;;;;;55.37;33.33;;;;;;;;;;5034229;28;20510;-27
2023/09/09 04:09:47;;;;;;;52.50;32.65;;;;;;;;;;5034418;28;20075;-27
2023/09/09 04:12:12;;;;;;;58.22;35.60;;;;;;;;;;5034123;28;20036;-27
2023/09/09 04:14:38;;;;;;;58.07;36.23;;;;;;;;;;5034026;28;20025;-28
2023/09/09 04:17:04;;;;;;;58.00;36.47;;;;;;;;;;5034037;28;20112;-27
2023/09/09 04:19:29;;;;;;;58.53;36.00;;;;;;;;;;5034004;28;20068;-27
2023/09/09 04:21:54;;;;;;;58.07;36.43;;;;;;;;;;5033266;28;20380;-27
2023/09/09 04:24:19;;;;;;;60.00;35.83;;;;;;;;;;5034164;28;20072;-27
2023/09/09 04:26:44;;;;;;;56.67;36.43;;;;;;;;;;5034404;28;20033;-27
2023/09/09 04:29:09;;;;;;;55.90;34.83;;;;;;;;;;5034122;28;20375;-27
2023/09/09 04:31:35;;;;;;;57.23;36.60;;;;;;;;;;5033769;28;20727;-27
2023/09/09 04:34:00;;;;;;;57.70;35.10;;;;;;;;;;5034206;28;20028;-27
2023/09/09 04:36:25;;;;;;;58.60;36.20;;;;;;;;;;5033686;28;20323;-27
2023/09/09 04:38:50;;;;;;;59.23;36.57;;;;;;;;;;5033892;28;20654;-27
2023/09/09 04:41:15;;;;;;;55.57;36.03;;;;;;;;;;5033629;28;20310;-27
2023/09/09 04:43:41;;;;;;;54.90;34.93;;;;;;;;;;5033593;28;20053;-27
2023/09/09 04:46:06;;;;;;;57.10;35.78;;;;;;;;;;5033596;28;20514;-27
2023/09/09 04:48:32;;;;;;;59.00;35.53;;;;;;;;;;5033570;28;20022;-27
2023/09/09 04:50:59;;;;;;;55.00;34.42;;;;;;;;;;5033741;28;20244;-27
2023/09/09 04:53:25;;;;;;;55.65;34.75;;;;;;;;;;5033509;28;20017;-27
2023/09/09 04:55:50;;;;;;;56.22;34.90;;;;;;;;;;5033573;28;20021;-27
2023/09/09 04:58:15;;;;;;;59.00;37.40;;;;;;;;;;5015767;28;20044;-27
2023/09/09 05:00:40;;;;;;;57.07;36.77;;;;;;;;;;5033285;28;20785;-27
2023/09/09 05:03:05;;;;;;;56.80;36.33;;;;;;;;;;5033390;28;20021;-27
2023/09/09 05:05:31;;;;;;;58.10;36.00;;;;;;;;;;5033582;28;20093;-27
2023/09/09 05:07:56;;;;;;;62.43;36.80;;;;;;;;;;5033763;28;20399;-27
2023/09/09 05:10:22;;;;;;;61.65;36.30;;;;;;;;;;5033224;28;20346;-27
2023/09/09 05:12:48;;;;;;;62.42;38.03;;;;;;;;;;5033398;28;20349;-27
2023/09/09 05:15:13;;;;;;;59.08;36.80;;;;;;;;;;5033029;28;20036;-27
2023/09/09 05:17:38;;;;;;;61.40;37.20;;;;;;;;;;5033099;28;20476;-27
2023/09/09 05:20:04;;;;;;;89.73;50.13;;;;;;;;;;5033226;28;20465;-27
2023/09/09 05:22:29;;;;;;;125.80;67.90;;;;;;;;;;5033022;28;20256;-27
2023/09/09 05:24:54;;;;;;;135.70;70.60;;;;;;;;;;5031748;28;20018;-27
2023/09/09 05:27:19;;;;;;;136.17;70.07;;;;;;;;;;5032976;28;20264;-27
2023/09/09 05:29:46;;;;;;;136.50;69.95;;;;;;;;;;5033126;28;20260;-27
2023/09/09 05:32:11;;;;;;;139.90;70.85;;;;;;;;;;5033005;28;20032;-27
2023/09/09 05:34:37;;;;;;;364.63;68.40;;;;;;;;;;5018627;28;20018;-27
2023/09/09 05:37:02;;;;;;;219.68;69.65;;;;;;;;;;5018554;28;20021;-27
2023/09/09 05:39:27;;;;;;;207.43;69.40;;;;;;;;;;5034887;28;20658;-27
2023/09/09 05:41:52;;;;;;;342.37;70.57;;;;;;;;;;5035011;28;20024;-27
2023/09/09 05:44:18;;;;;;;182.50;64.47;;;;;;;;;;5036500;28;20734;-27
2023/09/09 05:46:43;;;;;;;238.60;67.57;;;;;;;;;;5037229;28;20079;-27
2023/09/09 05:49:08;;;;;;;170.93;66.87;;;;;;;;;;5036619;28;20638;-27
2023/09/09 05:51:33;;;;;;;262.77;66.27;;;;;;;;;;5018869;28;20300;-27
2023/09/09 05:54:00;;;;;;;191.55;66.05;;;;;;;;;;5037032;28;20025;-27
2023/09/09 05:56:25;;;;;;;196.20;62.63;;;;;;;;;;5036762;28;20064;-27
2023/09/09 05:58:51;;;;;;;142.68;61.13;;;;;;;;;;5036349;28;20046;-27
2023/09/09 06:01:16;;;;;;;216.65;63.40;;;;;;;;;;5036492;28;20487;-27
2023/09/09 06:03:41;;;;;;;218.40;62.83;;;;;;;;;;5036375;28;20018;-27
2023/09/09 06:06:06;;;;;;;273.33;61.87;;;;;;;;;;5018515;28;20260;-27
2023/09/09 06:08:32;;;;;;;165.70;65.00;;;;;;;;;;5036180;28;20282;-27
2023/09/09 06:10:57;;;;;;;208.57;64.53;;;;;;;;;;5036781;28;20020;-27
2023/09/09 06:13:23;;;;;;;141.68;62.33;;;;;;;;;;5036772;28;20027;-27
2023/09/09 06:15:48;;;;;;;164.85;64.10;;;;;;;;;;5036367;28;20048;-27
2023/09/09 06:18:13;;;;;;;144.33;63.63;;;;;;;;;;5018586;28;20023;-27
2023/09/09 06:20:38;;;;;;;138.47;63.13;;;;;;;;;;5035913;28;20271;-27
2023/09/09 06:23:03;;;;;;;125.83;61.80;;;;;;;;;;5036041;28;20491;-27
2023/09/09 06:25:29;;;;;;;119.68;61.75;;;;;;;;;;5036210;28;20096;-27
2023/09/09 06:27:54;;;;;;;117.07;60.05;;;;;;;;;;5035943;28;20021;-27
2023/09/09 06:30:19;;;;;;;111.30;60.03;;;;;;;;;;5035809;28;20464;-27
2023/09/09 06:32:44;;;;;;;113.43;59.57;;;;;;;;;;5035779;28;20256;-27
2023/09/09 06:35:10;;;;;;;101.47;56.87;;;;;;;;;;5036196;28;20280;-27
2023/09/09 06:37:35;;;;;;;102.10;57.83;;;;;;;;;;5035946;28;20380;-27
2023/09/09 06:40:00;;;;;;;99.87;56.50;;;;;;;;;;5035726;28;20252;-27
2023/09/09 06:42:25;;;;;;;109.90;58.10;;;;;;;;;;5035916;28;20252;-27
2023/09/09 06:44:50;;;;;;;98.57;56.83;;;;;;;;;;5034801;28;20464;-27
2023/09/09 06:47:16;;;;;;;97.83;56.83;;;;;;;;;;5035573;28;20020;-27
2023/09/09 06:49:41;;;;;;;96.63;56.40;;;;;;;;;;5035394;28;20351;-27
2023/09/09 06:52:06;;;;;;;95.90;55.60;;;;;;;;;;5035945;28;20339;-27
2023/09/09 06:54:31;;;;;;;94.60;57.63;;;;;;;;;;5035243;28;20018;-27
2023/09/09 06:56:56;;;;;;;91.13;55.57;;;;;;;;;;5035905;28;20049;-27
2023/09/09 06:59:22;;;;;;;90.03;54.20;;;;;;;;;;5035244;28;20045;-27
2023/09/09 07:01:47;;;;;;;82.30;54.60;;;;;;;;;;5035324;28;20075;-27
2023/09/09 07:04:12;;;;;;;79.05;53.03;;;;;;;;;;5035398;28;20021;-27
2023/09/09 07:06:38;;;;;;;70.83;48.70;;;;;;;;;;5035857;28;20037;-27
2023/09/09 07:09:03;;;;;;;66.70;47.37;;;;;;;;;;5035244;28;20359;-27
2023/09/09 07:11:28;;;;;;;61.60;46.50;;;;;;;;;;5035295;28;20025;-28
2023/09/09 07:13:54;;;;;;;59.83;46.10;;;;;;;;;;5035433;28;20037;-28
2023/09/09 07:16:19;;;;;;;60.17;44.27;;;;;;;;;;5034343;28;20136;-28
2023/09/09 07:18:44;;;;;;;53.47;43.67;;;;;;;;;;5034682;28;20751;-28
2023/09/09 07:21:09;;;;;;;57.27;42.10;;;;;;;;;;5035621;28;20297;-28
2023/09/09 07:23:34;;;;;;;50.43;41.80;;;;;;;;;;5034518;28;20020;-28
2023/09/09 07:26:00;;;;;;;52.33;39.90;;;;;;;;;;5034383;28;20017;-27
2023/09/09 07:28:25;;;;;;;53.30;38.33;;;;;;;;;;5034907;28;20017;-28
2023/09/09 07:30:53;;;;;;;48.60;38.30;;;;;;;;;;5034709;28;20808;-28
2023/09/09 07:33:18;;;;;;;44.15;36.33;;;;;;;;;;5033234;28;20458;-28
2023/09/09 07:35:44;;;;;;;44.65;36.42;;;;;;;;;;5034182;28;20097;-28
2023/09/09 07:38:09;;;;;;;44.90;36.20;;;;;;;;;;5034206;28;20464;-28
2023/09/09 07:40:35;;;;;;;40.73;35.20;;;;;;;;;;5034222;28;20071;-28
2023/09/09 07:43:00;;;;;;;42.30;33.63;;;;;;;;;;5034916;28;20279;-28
2023/09/09 07:45:26;;;;;;;43.50;35.72;;;;;;;;;;5034543;28;20375;-28
2023/09/09 07:47:51;;;;;;;41.95;34.05;;;;;;;;;;5034437;28;20096;-28
2023/09/09 07:50:16;;;;;;;40.08;34.13;;;;;;;;;;5034801;28;20100;-28
2023/09/09 07:52:41;;;;;;;38.33;33.20;;;;;;;;;;5034399;28;20032;-28
2023/09/09 07:55:07;;;;;;;37.93;32.07;;;;;;;;;;5034969;28;20021;-28
2023/09/09 07:57:32;;;;;;;35.42;31.30;;;;;;;;;;5033851;28;20025;-28
2023/09/09 07:59:57;;;;;;;36.87;31.93;;;;;;;;;;5034318;28;20048;-27
2023/09/09 08:02:22;;;;;;;39.43;31.40;;;;;;;;;;5034177;28;20029;-28
2023/09/09 08:04:48;;;;;;;38.30;30.40;;;;;;;;;;5034110;28;20082;-28
2023/09/09 08:07:13;;;;;;;36.63;31.10;;;;;;;;;;5034208;28;20033;-28
2023/09/09 08:09:38;;;;;;;34.43;29.33;;;;;;;;;;5033914;28;20446;-28
2023/09/09 08:12:03;;;;;;;34.93;28.80;;;;;;;;;;5034381;28;20025;-28
2023/09/09 08:14:29;;;;;;;33.20;27.10;;;;;;;;;;5034274;28;20284;-28
2023/09/09 08:16:55;;;;;;;30.88;27.30;;;;;;;;;;5033907;28;20017;-28
2023/09/09 08:19:20;;;;;;;33.17;25.90;;;;;;;;;;5015856;28;20024;-28
2023/09/09 08:21:46;;;;;;;32.47;26.17;;;;;;;;;;5034001;28;20021;-28
2023/09/09 08:24:11;;;;;;;26.13;20.83;;;;;;;;;;5033727;28;20468;-28
2023/09/09 08:26:36;;;;;;;28.23;22.10;;;;;;;;;;5033691;28;20014;-28
2023/09/09 08:29:01;;;;;;;26.30;21.53;;;;;;;;;;5033968;28;20022;-28
2023/09/09 08:31:27;;;;;;;26.03;21.17;;;;;;;;;;5033600;28;20017;-28
2023/09/09 08:33:52;;;;;;;24.40;20.00;;;;;;;;;;5033883;28;20025;-27
2023/09/09 08:36:17;;;;;;;22.80;18.90;;;;;;;;;;5033416;28;20009;-28
2023/09/09 08:38:42;;;;;;;27.13;20.17;;;;;;;;;;5033492;28;20264;-28
2023/09/09 08:41:16;;;;;;;24.70;19.13;;;;;;;;;;5033752;28;20021;-27
2023/09/09 08:43:48;;;;;;;19.58;17.13;;;;;;;;;;5033437;28;20048;-27
2023/09/09 08:46:17;;;;;;;21.67;17.65;;;;;;;;;;5033567;28;20017;-27
2023/09/09 08:48:43;;;;;;;26.63;18.60;;;;;;;;;;5033091;28;20028;-27
2023/09/09 08:51:12;;;;;;;25.35;18.67;;;;;;;;;;5032182;28;20021;-27
2023/09/09 08:53:39;;;;;;;20.67;15.52;;;;;;;;;;5030360;28;20040;-27
2023/09/09 08:56:04;;;;;;;20.58;11.98;;;;;;;;;;5031381;28;20037;-28
2023/09/09 08:58:29;;;;;;;13.77;10.13;;;;;;;;;;5030850;28;20017;-29
2023/09/09 09:00:55;;;;;;;24.57;10.70;;;;;;;;;;5031073;28;20021;-28
2023/09/09 09:03:20;;;;;;;30.25;13.40;;;;;;;;;;5031062;28;20021;-28
2023/09/09 09:05:46;;;;;;;17.58;12.52;;;;;;;;;;5013083;28;20079;-27
2023/09/09 09:08:11;;;;;;;20.23;13.60;;;;;;;;;;5030604;28;20045;-27
2023/09/09 09:10:37;;;;;;;18.70;12.93;;;;;;;;;;5029316;28;20014;-27
2023/09/09 09:13:03;;;;;;;15.73;10.80;;;;;;;;;;5031360;28;20029;-27
2023/09/09 09:15:31;;;;;;;13.70;10.18;;;;;;;;;;5033080;28;20057;-27
2023/09/09 09:17:56;;;;;;;17.50;11.10;;;;;;;;;;5033424;28;20562;-27
2023/09/09 09:20:25;;;;;;;15.47;10.13;;;;;;;;;;5033080;28;20092;-27
2023/09/09 09:22:50;;;;;;;13.82;9.07;;;;;;;;;;5033081;28;20021;-27
2023/09/09 09:25:19;;;;;;;15.73;11.37;;;;;;;;;;5033599;28;20021;-27
2023/09/09 09:27:44;;;;;;;18.25;10.05;;;;;;;;;;5033502;28;20259;-27
2023/09/09 09:30:11;;;;;;;15.83;12.07;;;;;;;;;;5033017;28;20460;-27
2023/09/09 09:32:40;;;;;;;14.18;10.98;;;;;;;;;;5033129;28;20025;-27
2023/09/09 09:35:05;;;;;;;17.70;11.93;;;;;;;;;;5032820;28;20013;-27
2023/09/09 09:37:31;;;;;;;15.65;10.88;;;;;;;;;;5031658;28;20068;-27
2023/09/09 09:39:56;;;;;;;18.70;10.13;;;;;;;;;;5033044;28;20113;-27
2023/09/09 09:42:21;;;;;;;12.13;8.40;;;;;;;;;;5033037;28;20022;-27
2023/09/09 09:44:46;;;;;;;12.07;8.07;;;;;;;;;;5033120;28;20022;-27
2023/09/09 09:47:12;;;;;;;16.37;8.37;;;;;;;;;;5033482;28;20322;-27
2023/09/09 09:49:38;;;;;;;12.73;10.23;;;;;;;;;;5031743;28;20028;-27
2023/09/09 09:52:04;;;;;;;13.77;9.45;;;;;;;;;;5031850;28;20431;-27
2023/09/09 09:54:30;;;;;;;14.82;9.07;;;;;;;;;;5032768;28;20018;-28
2023/09/09 09:57:02;;;;;;;13.40;7.65;;;;;;;;;;5032902;28;20013;-28
2023/09/09 09:59:28;;;;;;;13.20;8.52;;;;;;;;;;5032679;28;20054;-28
2023/09/09 10:01:55;;;;;;;10.52;7.60;;;;;;;;;;5033147;28;20404;-28
2023/09/09 10:04:20;;;;;;;11.05;7.93;;;;;;;;;;5014944;28;20017;-28
2023/09/09 10:06:46;;;;;;;11.45;7.90;;;;;;;;;;5032693;28;20028;-28
2023/09/09 10:09:30;;;;;;;9.73;6.25;;;;;;;;;;5030987;28;20032;-28
2023/09/09 10:12:14;;;;;;;13.32;6.45;;;;;;;;;;5032385;28;20040;-28
2023/09/09 10:14:41;;;;;;;9.68;6.10;;;;;;;;;;5032941;28;20108;-28
2023/09/09 10:17:07;;;;;;;10.43;6.30;;;;;;;;;;5032748;28;20393;-28
2023/09/09 10:19:34;;;;;;;9.30;5.40;;;;;;;;;;5032735;28;20024;-28
2023/09/09 10:22:00;;;;;;;15.95;5.30;;;;;;;;;;5035846;28;20017;-28
2023/09/09 10:24:26;;;;;;;13.65;7.15;;;;;;;;;;5036161;28;20044;-27
2023/09/09 10:26:52;;;;;;;8.50;6.30;;;;;;;;;;5036390;28;20025;-28
2023/09/09 10:29:17;;;;;;;10.40;6.50;;;;;;;;;;5035796;28;20354;-28
2023/09/09 10:31:43;;;;;;;9.15;6.60;;;;;;;;;;5035966;28;20353;-28
2023/09/09 10:34:09;;;;;;;7.68;6.13;;;;;;;;;;5036191;28;20064;-28
2023/09/09 10:36:35;;;;;;;10.00;6.47;;;;;;;;;;5033585;28;20016;-28
2023/09/09 10:39:01;;;;;;;7.60;6.65;;;;;;;;;;5033329;28;20472;-28
2023/09/09 10:41:26;;;;;;;10.27;7.30;;;;;;;;;;5031941;28;20075;-28
2023/09/09 10:43:51;;;;;;;10.60;6.32;;;;;;;;;;5033366;28;20033;-28
2023/09/09 10:46:16;;;;;;;10.07;6.07;;;;;;;;;;5033607;28;20006;-28
2023/09/09 10:48:45;;;;;;;10.17;5.93;;;;;;;;;;5033546;28;20020;-28
2023/09/09 10:51:12;;;;;;;8.73;6.13;;;;;;;;;;5033436;28;20098;-28
2023/09/09 10:53:37;;;;;;;12.52;6.50;;;;;;;;;;5033596;28;20413;-28
2023/09/09 10:56:15;;;;;;;14.17;7.03;;;;;;;;;;5033478;28;20112;-28
2023/09/09 10:58:42;;;;;;;10.80;6.05;;;;;;;;;;5033750;28;20028;-28
2023/09/09 11:01:07;;;;;;;10.85;5.88;;;;;;;;;;5035757;28;20132;-28
2023/09/09 11:03:41;;;;;;;14.15;5.80;;;;;;;;;;5035668;28;20045;-28
2023/09/09 11:06:10;;;;;;;17.30;6.57;;;;;;;;;;5035616;28;20057;-28
2023/09/09 11:08:36;;;;;;;10.70;6.50;;;;;;;;;;5017572;28;20464;-28
2023/09/09 11:11:21;;;;;;;10.98;6.28;;;;;;;;;;5035821;28;20029;-28
2023/09/09 11:13:50;;;;;;;12.30;5.72;;;;;;;;;;5017046;28;20037;-28
2023/09/09 11:16:34;;;;;;;10.55;6.15;;;;;;;;;;5035100;28;20021;-28
2023/09/09 11:19:02;;;;;;;13.43;6.00;;;;;;;;;;5035491;28;20020;-28
2023/09/09 11:21:29;;;;;;;8.27;6.43;;;;;;;;;;5035054;28;20022;-28
2023/09/09 11:23:54;;;;;;;14.45;6.90;;;;;;;;;;5035520;28;20100;-28
2023/09/09 11:26:20;;;;;;;10.25;6.75;;;;;;;;;;5035395;28;20045;-28
2023/09/09 11:28:48;;;;;;;12.95;6.72;;;;;;;;;;5034595;28;20071;-28
2023/09/09 11:31:14;;;;;;;10.95;6.07;;;;;;;;;;5034189;28;20013;-28
2023/09/09 11:33:39;;;;;;;8.57;5.70;;;;;;;;;;5034462;28;20108;-28
2023/09/09 11:36:05;;;;;;;10.57;5.80;;;;;;;;;;5034316;28;20519;-28
2023/09/09 11:38:31;;;;;;;8.70;5.60;;;;;;;;;;5033760;28;20010;-28
2023/09/09 11:40:56;;;;;;;10.45;6.07;;;;;;;;;;5034204;28;20427;-28
2023/09/09 11:43:21;;;;;;;8.43;5.60;;;;;;;;;;5034038;28;20021;-28
2023/09/09 11:45:46;;;;;;;10.23;6.00;;;;;;;;;;5034820;28;20030;-27
2023/09/09 11:48:14;;;;;;;8.57;5.73;;;;;;;;;;5034566;28;20025;-27
2023/09/09 11:50:43;;;;;;;12.30;5.00;;;;;;;;;;5035300;28;20113;-27
2023/09/09 11:53:09;;;;;;;13.85;5.40;;;;;;;;;;5034689;28;20390;-27
2023/09/09 11:55:34;;;;;;;11.85;6.00;;;;;;;;;;5034531;28;20467;-27
2023/09/09 11:57:59;;;;;;;14.37;6.20;;;;;;;;;;5034825;28;20061;-27
2023/09/09 12:00:25;;;;;;;13.10;6.00;;;;;;;;;;5034165;28;20519;-27
2023/09/09 12:02:50;;;;;;;11.52;6.20;;;;;;;;;;5034204;28;20049;-27
2023/09/09 12:05:15;;;;;;;12.40;6.17;;;;;;;;;;5034830;28;20407;-27
2023/09/09 12:07:42;;;;;;;10.83;7.40;;;;;;;;;;5034277;28;20028;-28
2023/09/09 12:10:12;;;;;;;10.02;6.10;;;;;;;;;;5034170;28;20406;-27
2023/09/09 12:12:38;;;;;;;13.48;6.60;;;;;;;;;;5034399;28;20108;-27
2023/09/09 12:15:04;;;;;;;12.38;6.95;;;;;;;;;;5034026;28;20096;-27
2023/09/09 12:17:29;;;;;;;14.60;7.10;;;;;;;;;;5034262;28;20017;-28
2023/09/09 12:19:55;;;;;;;16.47;8.90;;;;;;;;;;5016144;28;20091;-27
2023/09/09 12:22:33;;;;;;;17.75;7.80;;;;;;;;;;5033853;28;20014;-27
2023/09/09 12:24:59;;;;;;;17.05;8.45;;;;;;;;;;5034036;28;20456;-27
2023/09/09 12:27:43;;;;;;;11.20;6.32;;;;;;;;;;5034039;28;20027;-27
2023/09/09 12:30:27;;;;;;;11.05;6.85;;;;;;;;;;5033818;28;20026;-27
2023/09/09 12:32:52;;;;;;;15.80;7.30;;;;;;;;;;5015932;28;20044;-27
2023/09/09 12:35:18;;;;;;;13.50;8.30;;;;;;;;;;5034062;28;20017;-27
2023/09/09 12:37:43;;;;;;;16.42;7.38;;;;;;;;;;5033626;28;20486;-27
2023/09/09 12:40:09;;;;;;;12.13;6.13;;;;;;;;;;5015825;28;20075;-27
2023/09/09 12:42:34;;;;;;;12.95;6.63;;;;;;;;;;5031827;28;20108;-27
2023/09/09 12:44:59;;;;;;;14.17;7.13;;;;;;;;;;5034120;28;20101;-27
2023/09/09 12:47:24;;;;;;;9.07;6.50;;;;;;;;;;5033572;28;20021;-27
2023/09/09 12:49:50;;;;;;;14.43;5.97;;;;;;;;;;5033422;28;20087;-28
2023/09/09 12:52:16;;;;;;;11.13;7.20;;;;;;;;;;5033716;28;20032;-27
2023/09/09 12:54:41;;;;;;;9.75;7.03;;;;;;;;;;5033189;28;20017;-27
2023/09/09 12:57:06;;;;;;;14.83;6.37;;;;;;;;;;5033925;28;20025;-27
2023/09/09 12:59:31;;;;;;;11.50;5.80;;;;;;;;;;5032904;28;20100;-26
2023/09/09 13:01:57;;;;;;;8.73;5.47;;;;;;;;;;5032520;28;20426;-26
2023/09/09 13:04:22;;;;;;;10.27;5.50;;;;;;;;;;5032653;28;20037;-27
2023/09/09 13:06:47;;;;;;;8.75;6.03;;;;;;;;;;5032679;28;20353;-27
2023/09/09 13:09:13;;;;;;;13.67;5.63;;;;;;;;;;5032502;28;20535;-27
2023/09/09 13:11:38;;;;;;;12.20;5.87;;;;;;;;;;5032533;28;20056;-27
2023/09/09 13:14:04;;;;;;;12.70;6.60;;;;;;;;;;5032448;28;20131;-27
2023/09/09 13:16:29;;;;;;;11.27;6.47;;;;;;;;;;5033260;28;20013;-27
2023/09/09 13:18:54;;;;;;;10.38;5.95;;;;;;;;;;5033128;28;20103;-27
2023/09/09 13:21:20;;;;;;;13.27;5.67;;;;;;;;;;5033310;28;20010;-27
2023/09/09 13:23:45;;;;;;;15.30;6.43;;;;;;;;;;5033222;28;20240;-27
2023/09/09 13:26:10;;;;;;;12.10;6.43;;;;;;;;;;5033040;28;20025;-27
2023/09/09 13:28:35;;;;;;;10.10;6.13;;;;;;;;;;5033489;28;20018;-27
2023/09/09 13:31:00;;;;;;;8.90;6.17;;;;;;;;;;5033095;28;20056;-28
2023/09/09 13:33:25;;;;;;;13.23;6.27;;;;;;;;;;5033142;28;20024;-28
2023/09/09 13:35:51;;;;;;;11.87;6.10;;;;;;;;;;5032991;28;20112;-28
2023/09/09 13:38:16;;;;;;;11.43;5.57;;;;;;;;;;5033028;28;20367;-28
2023/09/09 13:40:41;;;;;;;12.60;6.00;;;;;;;;;;5032883;28;20021;-28
2023/09/09 13:43:07;;;;;;;11.90;5.90;;;;;;;;;;5032879;28;20041;-28
2023/09/09 13:45:32;;;;;;;11.07;6.37;;;;;;;;;;5033324;28;20063;-28
2023/09/09 13:47:57;;;;;;;9.30;6.20;;;;;;;;;;5032966;28;20264;-28
2023/09/09 13:50:22;;;;;;;9.60;5.73;;;;;;;;;;5033170;28;20112;-28
2023/09/09 13:52:47;;;;;;;10.73;6.00;;;;;;;;;;5032927;28;20072;-27
2023/09/09 13:55:15;;;;;;;10.43;6.37;;;;;;;;;;5033939;28;20022;-27
2023/09/09 13:57:40;;;;;;;7.90;5.57;;;;;;;;;;5034814;28;20019;-27
2023/09/09 14:00:05;;;;;;;8.60;5.83;;;;;;;;;;5034383;28;20041;-27
2023/09/09 14:02:31;;;;;;;12.77;7.05;;;;;;;;;;5034488;28;20021;-27
2023/09/09 14:04:56;;;;;;;11.80;6.57;;;;;;;;;;5034490;28;20427;-27
2023/09/09 14:07:21;;;;;;;8.30;6.40;;;;;;;;;;5034378;28;20256;-27
2023/09/09 14:09:47;;;;;;;9.80;6.40;;;;;;;;;;5017306;28;20079;-27
2023/09/09 14:12:12;;;;;;;11.07;5.90;;;;;;;;;;5036714;28;20017;-27